Time;durP1;ratioP1;P1;durP2;ratioP2;P2;SDS_P1;SDS_P2;PMS_P1;PMS_P2;Temp;Humidity;BMP_temperature;BMP_pressure;BME280_temperature;BME280_humidity;BME280_pressure;Samples;Min_cycle;Max_cycle;Signal;HPM_P1;HPM_P2
2024/03/31 00:03:13;;;;;;;9.35;2.95;;;13.90;99.90;;;;;;10060164;28;20032;-70
2024/03/31 00:08:04;;;;;;;7.15;2.55;;;13.90;99.90;;;;;;10062121;28;20042;-71
2024/03/31 00:12:54;;;;;;;12.48;2.95;;;14.00;99.90;;;;;;10061097;28;20064;-71
2024/03/31 00:17:45;;;;;;;7.07;2.70;;;13.90;99.90;;;;;;10058811;28;20111;-71
2024/03/31 00:22:36;;;;;;;5.40;2.28;;;14.00;99.90;;;;;;10060892;28;20577;-66
2024/03/31 00:27:26;;;;;;;8.48;2.70;;;14.00;99.90;;;;;;10060639;28;20037;-69
2024/03/31 00:32:17;;;;;;;16.58;3.30;;;14.00;99.90;;;;;;10060093;28;20816;-70
2024/03/31 00:37:08;;;;;;;7.03;3.00;;;13.90;99.90;;;;;;10060572;28;20068;-67
2024/03/31 00:41:58;;;;;;;8.55;3.28;;;13.90;99.90;;;;;;10060324;28;20026;-74
2024/03/31 00:46:49;;;;;;;8.15;2.53;;;13.90;99.90;;;;;;10049318;28;20033;-68
2024/03/31 00:51:40;;;;;;;5.32;2.90;;;13.90;99.90;;;;;;10052105;28;20037;-71
2024/03/31 00:56:30;;;;;;;9.00;3.28;;;13.90;99.90;;;;;;10061405;28;20025;-68
2024/03/31 01:01:21;;;;;;;12.85;3.95;;;14.00;99.90;;;;;;10067613;28;20071;-67
2024/03/31 01:06:20;;;;;;;13.10;2.58;;;13.90;99.90;;;;;;10060083;28;20432;-67
2024/03/31 01:11:12;;;;;;;7.90;3.80;;;13.80;99.90;;;;;;10056380;28;20518;-67
2024/03/31 01:21:01;;;;;;;6.55;2.50;;;13.80;99.90;;;;;;10094312;28;20095;-67
2024/03/31 01:25:52;;;;;;;12.20;2.72;;;13.80;99.90;;;;;;10097044;28;20025;-67
2024/03/31 01:30:42;;;;;;;7.55;2.97;;;13.90;99.90;;;;;;10110402;28;20029;-66
2024/03/31 01:35:33;;;;;;;6.88;2.20;;;13.90;99.90;;;;;;10100425;28;20305;-66
2024/03/31 01:40:23;;;;;;;7.32;3.03;;;13.80;99.90;;;;;;10097423;28;21391;-69
2024/03/31 01:45:15;;;;;;;7.63;3.15;;;13.80;99.90;;;;;;10100137;28;20045;-67
2024/03/31 01:50:06;;;;;;;11.20;3.72;;;13.80;99.90;;;;;;10100918;28;20025;-67
2024/03/31 01:54:57;;;;;;;8.27;3.50;;;13.80;99.90;;;;;;10096455;28;20020;-67
2024/03/31 01:59:48;;;;;;;13.00;4.00;;;13.80;99.90;;;;;;10097810;28;20117;-67
2024/03/31 02:04:38;;;;;;;11.10;4.30;;;13.70;99.90;;;;;;10097222;28;20129;-67
2024/03/31 02:09:29;;;;;;;11.63;3.97;;;13.70;99.90;;;;;;10099787;28;20115;-66
2024/03/31 02:14:20;;;;;;;11.80;4.45;;;13.60;99.90;;;;;;10096320;28;20029;-66
2024/03/31 02:19:10;;;;;;;9.07;3.58;;;13.60;99.90;;;;;;10097032;28;20041;-67
2024/03/31 02:24:01;;;;;;;12.25;4.53;;;13.50;99.90;;;;;;10096432;28;20033;-66
2024/03/31 02:28:53;;;;;;;8.98;4.40;;;13.50;99.90;;;;;;10101883;28;20029;-66
2024/03/31 02:33:44;;;;;;;11.60;5.03;;;13.50;99.90;;;;;;10096229;28;20032;-66
2024/03/31 02:38:34;;;;;;;10.02;5.18;;;13.40;99.90;;;;;;10100958;28;20021;-67
2024/03/31 02:43:25;;;;;;;10.82;4.50;;;13.50;99.90;;;;;;10102744;28;20021;-65
2024/03/31 02:48:15;;;;;;;9.80;4.82;;;13.30;99.90;;;;;;10096206;28;20083;-65
2024/03/31 02:53:06;;;;;;;10.77;5.13;;;13.30;99.90;;;;;;10095298;28;20701;-67
2024/03/31 02:57:57;;;;;;;12.10;5.38;;;13.20;99.90;;;;;;10088040;28;20116;-65
2024/03/31 03:02:47;;;;;;;11.07;4.93;;;13.20;99.90;;;;;;10095649;28;20795;-67
2024/03/31 03:07:38;;;;;;;12.93;5.20;;;13.20;99.90;;;;;;10096618;28;20025;-65
2024/03/31 03:12:28;;;;;;;9.02;4.97;;;13.20;99.90;;;;;;10113120;28;20090;-66
2024/03/31 03:17:19;;;;;;;11.52;4.95;;;13.20;99.90;;;;;;10102127;28;20045;-66
2024/03/31 03:22:10;;;;;;;19.63;5.68;;;13.20;99.90;;;;;;10102209;28;20108;-67
2024/03/31 03:27:01;;;;;;;12.40;4.65;;;13.20;99.90;;;;;;10103477;28;20086;-67
2024/03/31 03:31:53;;;;;;;10.50;4.78;;;13.20;99.90;;;;;;10102698;28;20044;-66
2024/03/31 03:36:43;;;;;;;7.85;4.32;;;13.20;99.90;;;;;;10106840;28;20032;-66
2024/03/31 03:41:34;;;;;;;10.02;4.88;;;13.20;99.90;;;;;;10106853;28;20685;-68
2024/03/31 03:46:25;;;;;;;12.40;5.22;;;13.10;99.90;;;;;;10102611;28;20021;-66
2024/03/31 03:51:15;;;;;;;10.75;5.22;;;13.10;99.90;;;;;;10101065;28;20037;-66
2024/03/31 03:56:06;;;;;;;10.02;4.82;;;13.10;99.90;;;;;;10116414;28;20025;-67
2024/03/31 04:00:57;;;;;;;11.75;5.00;;;13.10;99.90;;;;;;10102145;28;20459;-69
2024/03/31 04:05:57;;;;;;;15.63;5.25;;;13.10;99.90;;;;;;10116805;28;20080;-67
2024/03/31 04:10:48;;;;;;;12.98;5.00;;;13.00;99.90;;;;;;10095890;28;20079;-68
2024/03/31 04:15:38;;;;;;;11.52;4.43;;;13.00;99.90;;;;;;10102273;28;20031;-68
2024/03/31 04:20:29;;;;;;;15.63;5.97;;;13.00;99.90;;;;;;10100490;28;20135;-68
2024/03/31 04:25:20;;;;;;;16.50;5.22;;;13.00;99.90;;;;;;10109387;28;20426;-66
2024/03/31 04:30:10;;;;;;;12.20;5.20;;;13.00;99.90;;;;;;10100850;28;20049;-67
2024/03/31 04:35:01;;;;;;;15.18;6.15;;;13.00;99.90;;;;;;10105453;28;20071;-68
2024/03/31 04:39:52;;;;;;;12.32;6.47;;;12.90;99.90;;;;;;10101098;28;20017;-67
2024/03/31 04:44:43;;;;;;;17.80;6.65;;;13.00;99.90;;;;;;10107290;28;20025;-66
2024/03/31 04:49:33;;;;;;;15.63;6.53;;;12.90;99.90;;;;;;10100694;28;20512;-68
2024/03/31 04:54:24;;;;;;;12.43;6.35;;;12.70;99.90;;;;;;10099981;28;20053;-68
2024/03/31 04:59:15;;;;;;;17.13;6.72;;;12.70;99.90;;;;;;10108442;28;20098;-66
2024/03/31 05:04:05;;;;;;;13.90;5.85;;;12.70;99.90;;;;;;10105072;28;20033;-69
2024/03/31 05:08:56;;;;;;;19.48;5.85;;;12.60;99.90;;;;;;10099766;28;20037;-68
2024/03/31 05:13:47;;;;;;;12.52;6.00;;;12.60;99.90;;;;;;10098815;28;20438;-67
2024/03/31 05:18:38;;;;;;;15.00;6.53;;;12.40;99.90;;;;;;10100221;28;20497;-68
2024/03/31 05:23:29;;;;;;;12.95;6.50;;;12.40;99.90;;;;;;10097609;28;20483;-66
2024/03/31 05:28:19;;;;;;;14.38;6.13;;;12.50;99.90;;;;;;10103390;28;20558;-66
2024/03/31 05:33:11;;;;;;;16.70;6.40;;;12.50;99.90;;;;;;10098641;28;20025;-67
2024/03/31 05:38:02;;;;;;;12.10;6.22;;;12.50;99.90;;;;;;10098154;28;20600;-66
2024/03/31 05:42:53;;;;;;;18.85;6.22;;;12.50;99.90;;;;;;10107020;28;20033;-66
2024/03/31 05:47:43;;;;;;;13.70;5.72;;;12.50;99.90;;;;;;10093654;28;20033;-67
2024/03/31 05:52:34;;;;;;;14.05;5.53;;;12.50;99.90;;;;;;10097997;28;20029;-66
2024/03/31 05:57:25;;;;;;;12.27;6.53;;;12.50;99.90;;;;;;10099435;28;20458;-66
2024/03/31 06:02:15;;;;;;;13.27;4.88;;;12.30;99.90;;;;;;10105471;28;20039;-67
2024/03/31 06:07:06;;;;;;;17.85;5.70;;;12.40;99.90;;;;;;10097401;28;20013;-65
2024/03/31 06:11:56;;;;;;;9.07;5.45;;;12.40;99.90;;;;;;10099143;28;20350;-65
2024/03/31 06:16:47;;;;;;;10.35;4.57;;;12.40;99.90;;;;;;10100851;28;20044;-65
2024/03/31 06:21:38;;;;;;;8.73;5.05;;;12.40;99.90;;;;;;10096456;28;20044;-66
2024/03/31 06:26:28;;;;;;;10.18;4.45;;;12.30;99.90;;;;;;10100947;28;20077;-65
2024/03/31 06:31:19;;;;;;;11.18;4.95;;;12.10;99.90;;;;;;10100563;28;20513;-66
2024/03/31 06:36:10;;;;;;;8.25;4.00;;;12.10;99.90;;;;;;10096619;28;20033;-65
2024/03/31 06:41:00;;;;;;;9.35;4.30;;;12.10;99.90;;;;;;10086674;28;20128;-66
2024/03/31 06:45:51;;;;;;;8.27;4.30;;;12.20;99.90;;;;;;10095663;28;20029;-65
2024/03/31 06:50:41;;;;;;;10.40;4.35;;;12.30;99.90;;;;;;10100716;28;20036;-65
2024/03/31 06:55:32;;;;;;;15.07;4.53;;;12.20;99.90;;;;;;10105933;28;20031;-66
2024/03/31 07:00:23;;;;;;;7.97;3.60;;;12.40;99.90;;;;;;10099402;28;20087;-65
2024/03/31 07:05:13;;;;;;;8.48;3.88;;;12.60;99.90;;;;;;10096546;28;20104;-65
2024/03/31 07:10:04;;;;;;;11.85;3.97;;;12.70;99.90;;;;;;10094910;28;20112;-64
2024/03/31 07:14:55;;;;;;;10.73;4.05;;;12.80;99.90;;;;;;10095438;28;20017;-65
2024/03/31 07:19:45;;;;;;;13.00;3.75;;;12.90;99.90;;;;;;10095020;28;20049;-65
2024/03/31 07:24:37;;;;;;;13.27;4.90;;;12.90;99.90;;;;;;10098911;28;20024;-65
2024/03/31 07:29:27;;;;;;;12.93;4.55;;;12.90;99.90;;;;;;10095220;28;20525;-64
2024/03/31 07:34:18;;;;;;;8.52;4.00;;;12.90;99.90;;;;;;10095909;28;20028;-65
2024/03/31 07:39:08;;;;;;;10.68;3.95;;;13.00;99.90;;;;;;10089266;28;20036;-65
2024/03/31 07:43:59;;;;;;;8.43;4.53;;;13.00;99.90;;;;;;10094864;28;20021;-65
2024/03/31 07:48:50;;;;;;;8.98;3.38;;;13.10;99.90;;;;;;10102140;28;20501;-65
2024/03/31 07:53:40;;;;;;;8.70;3.50;;;13.20;99.90;;;;;;10103713;28;20021;-65
2024/03/31 07:58:31;;;;;;;8.98;3.05;;;13.10;99.90;;;;;;10107863;28;20116;-64
2024/03/31 08:03:23;;;;;;;10.43;3.13;;;13.20;99.90;;;;;;10103480;28;20043;-66
2024/03/31 08:08:13;;;;;;;5.57;2.70;;;13.20;99.90;;;;;;10103225;28;20105;-66
2024/03/31 08:13:04;;;;;;;6.28;2.95;;;13.20;99.90;;;;;;10101728;28;20115;-67
2024/03/31 08:17:55;;;;;;;9.82;3.30;;;13.30;99.90;;;;;;10099905;28;20044;-66
2024/03/31 08:22:45;;;;;;;6.15;3.55;;;13.30;99.90;;;;;;10103791;28;20036;-66
2024/03/31 08:27:36;;;;;;;7.65;2.80;;;13.20;99.90;;;;;;10099175;28;20036;-65
2024/03/31 08:32:26;;;;;;;6.38;2.17;;;13.10;99.90;;;;;;10102750;28;20045;-65
2024/03/31 08:37:17;;;;;;;8.30;2.83;;;13.30;99.90;;;;;;10104056;28;20036;-65
2024/03/31 08:42:21;;;;;;;8.02;2.65;;;13.50;99.90;;;;;;10100093;28;20071;-65
2024/03/31 08:47:15;;;;;;;4.88;2.15;;;13.60;99.90;;;;;;10102412;28;20506;-65
2024/03/31 08:52:08;;;;;;;5.82;2.33;;;13.60;99.90;;;;;;10101773;28;20029;-65
2024/03/31 08:56:59;;;;;;;4.50;2.17;;;13.60;99.90;;;;;;10100690;28;20078;-66
2024/03/31 09:01:51;;;;;;;15.30;2.97;;;13.70;99.90;;;;;;10099442;28;20570;-65
2024/03/31 09:06:41;;;;;;;8.30;2.20;;;13.80;99.90;;;;;;10098708;28;20348;-65
2024/03/31 09:11:32;;;;;;;5.40;2.05;;;13.90;99.90;;;;;;10102332;28;20041;-65
2024/03/31 09:16:23;;;;;;;5.78;2.17;;;13.90;99.90;;;;;;10101620;28;20423;-65
2024/03/31 09:21:14;;;;;;;4.40;2.40;;;13.90;99.90;;;;;;10098416;28;20446;-66
2024/03/31 09:26:05;;;;;;;10.52;2.15;;;14.10;99.90;;;;;;10098561;28;20017;-65
2024/03/31 09:30:56;;;;;;;6.43;1.83;;;14.30;99.90;;;;;;10106604;28;20516;-66
2024/03/31 09:35:46;;;;;;;4.43;1.55;;;14.40;99.90;;;;;;10098375;28;20029;-65
2024/03/31 09:40:38;;;;;;;9.35;2.15;;;14.40;99.90;;;;;;10101010;28;20213;-66
2024/03/31 09:45:29;;;;;;;6.38;1.38;;;14.50;99.90;;;;;;10100731;28;20032;-66
2024/03/31 09:50:25;;;;;;;8.07;2.40;;;14.60;99.90;;;;;;10097041;28;20118;-65
2024/03/31 09:55:22;;;;;;;5.72;1.95;;;14.50;99.90;;;;;;10100542;28;20488;-66
2024/03/31 10:00:17;;;;;;;7.45;1.65;;;14.50;99.90;;;;;;10091923;28;20039;-65
2024/03/31 10:05:24;;;;;;;5.77;1.57;;;14.60;99.90;;;;;;10097535;28;20017;-65
2024/03/31 10:10:16;;;;;;;6.45;1.80;;;14.70;99.90;;;;;;10099666;28;20040;-66
2024/03/31 10:15:07;;;;;;;4.90;1.60;;;14.80;99.90;;;;;;10097088;28;20506;-66
2024/03/31 10:20:00;;;;;;;5.13;1.70;;;14.90;99.90;;;;;;10096383;28;20058;-65
2024/03/31 10:24:52;;;;;;;6.75;1.83;;;15.00;99.90;;;;;;10096330;28;20032;-65
2024/03/31 10:29:47;;;;;;;6.25;1.90;;;15.00;99.90;;;;;;10096126;28;20087;-65
2024/03/31 10:34:38;;;;;;;6.93;1.88;;;15.20;99.90;;;;;;10096522;28;20021;-65
2024/03/31 10:39:29;;;;;;;3.95;1.25;;;15.30;99.90;;;;;;10095732;28;20467;-66
2024/03/31 10:44:20;;;;;;;7.32;2.28;;;15.30;99.90;;;;;;10096224;28;20029;-66
2024/03/31 10:49:11;;;;;;;7.72;2.72;;;15.30;99.90;;;;;;10095954;28;20432;-65
2024/03/31 10:54:34;;;;;;;9.23;1.80;;;15.30;99.90;;;;;;10094514;28;20021;-65
2024/03/31 10:59:27;;;;;;;20.60;3.55;;;15.30;99.90;;;;;;10103545;28;20428;-65
2024/03/31 11:04:19;;;;;;;7.72;1.42;;;15.30;99.90;;;;;;10095570;28;20044;-66
2024/03/31 11:09:10;;;;;;;6.20;1.63;;;15.40;99.90;;;;;;10095139;28;20495;-66
2024/03/31 11:14:01;;;;;;;5.25;1.75;;;15.40;99.90;;;;;;10094987;28;20025;-66
2024/03/31 11:18:52;;;;;;;7.72;1.85;;;15.50;99.90;;;;;;10095162;28;20080;-65
2024/03/31 11:23:43;;;;;;;4.85;1.63;;;15.60;99.90;;;;;;10089007;28;20025;-66
2024/03/31 11:28:34;;;;;;;3.55;1.30;;;15.60;99.90;;;;;;10096265;28;20040;-66
2024/03/31 11:33:26;;;;;;;8.02;1.90;;;15.70;99.90;;;;;;10102672;28;20041;-66
2024/03/31 11:38:17;;;;;;;6.72;1.83;;;15.80;99.90;;;;;;10098917;28;20032;-66
2024/03/31 11:43:08;;;;;;;6.63;1.80;;;15.90;99.90;;;;;;10102867;28;20024;-65
2024/03/31 11:47:58;;;;;;;7.80;1.48;;;16.00;99.90;;;;;;10099510;28;20055;-65
2024/03/31 11:52:49;;;;;;;9.32;2.33;;;16.00;99.90;;;;;;10102233;28;20048;-65
2024/03/31 11:57:40;;;;;;;9.43;1.27;;;16.00;99.90;;;;;;10107284;28;20033;-66
2024/03/31 12:02:31;;;;;;;6.32;1.77;;;16.10;99.90;;;;;;10101649;28;20089;-66
2024/03/31 12:07:22;;;;;;;5.85;1.10;;;16.20;99.90;;;;;;10101688;28;20060;-66
2024/03/31 12:12:13;;;;;;;6.10;1.58;;;16.20;99.90;;;;;;10101010;28;20065;-66
2024/03/31 12:17:03;;;;;;;10.35;1.65;;;16.30;99.90;;;;;;10101246;28;20445;-67
2024/03/31 12:21:54;;;;;;;5.47;1.83;;;16.30;99.90;;;;;;10099027;28;20048;-68
2024/03/31 12:26:46;;;;;;;2.33;1.42;;;16.40;99.90;;;;;;10099409;28;20160;-66
2024/03/31 12:31:36;;;;;;;4.97;1.83;;;16.50;99.90;;;;;;10105337;28;20437;-65
2024/03/31 12:36:27;;;;;;;8.05;1.45;;;16.60;99.90;;;;;;10103843;28;20108;-66
2024/03/31 12:41:18;;;;;;;4.22;1.35;;;16.70;99.90;;;;;;10099252;28;20100;-66
2024/03/31 12:46:16;;;;;;;5.82;2.00;;;16.70;99.90;;;;;;10095982;28;20032;-66
2024/03/31 12:51:07;;;;;;;5.70;1.83;;;16.70;99.90;;;;;;10100527;28;20514;-65
2024/03/31 12:55:59;;;;;;;5.80;1.88;;;16.80;99.90;;;;;;10099937;28;20218;-66
2024/03/31 13:00:52;;;;;;;2.90;1.33;;;16.90;99.90;;;;;;10099188;28;20032;-66
2024/03/31 13:05:43;;;;;;;7.35;1.88;;;17.10;99.90;;;;;;10099978;28;20040;-66
2024/03/31 13:10:35;;;;;;;3.88;1.50;;;17.40;99.90;;;;;;10099711;28;20112;-66
2024/03/31 13:15:25;;;;;;;4.68;1.90;;;17.70;99.90;;;;;;10099501;28;20071;-66
2024/03/31 13:20:16;;;;;;;4.00;1.50;;;17.70;99.90;;;;;;10098553;28;20057;-64
2024/03/31 13:25:08;;;;;;;5.25;1.75;;;17.70;99.90;;;;;;10099217;28;20032;-64
2024/03/31 13:29:59;;;;;;;5.20;1.60;;;17.70;99.90;;;;;;10098925;28;20086;-65
2024/03/31 13:34:50;;;;;;;3.80;1.38;;;17.60;99.90;;;;;;10098586;28;20044;-65
2024/03/31 13:39:40;;;;;;;8.88;2.00;;;17.60;99.90;;;;;;10098251;28;20025;-65
2024/03/31 13:44:31;;;;;;;5.93;1.80;;;17.50;99.90;;;;;;10089221;28;20037;-65
2024/03/31 13:49:21;;;;;;;4.65;2.55;;;17.40;99.90;;;;;;10098310;28;20037;-65
2024/03/31 13:54:12;;;;;;;4.82;1.75;;;17.40;99.90;;;;;;10095321;28;20021;-64
2024/03/31 13:59:03;;;;;;;6.45;2.00;;;17.40;99.90;;;;;;10096927;28;20131;-65
2024/03/31 14:03:54;;;;;;;5.97;2.30;;;17.50;99.90;;;;;;10098049;28;20640;-66
2024/03/31 14:08:45;;;;;;;6.05;1.52;;;18.20;99.90;;;;;;10103594;28;20039;-66
2024/03/31 14:13:38;;;;;;;7.78;2.08;;;18.80;99.90;;;;;;10115190;28;20033;-66
2024/03/31 14:18:29;;;;;;;3.70;1.95;;;19.00;99.90;;;;;;10097119;28;20152;-67
2024/03/31 14:23:19;;;;;;;6.28;2.20;;;19.10;99.90;;;;;;10101949;28;20024;-66
2024/03/31 14:28:10;;;;;;;5.53;1.95;;;19.00;99.90;;;;;;10098945;28;20453;-66
2024/03/31 14:33:03;;;;;;;6.22;2.20;;;18.60;99.90;;;;;;10096566;28;20623;-66
2024/03/31 14:37:53;;;;;;;5.60;1.40;;;18.50;99.90;;;;;;10091760;28;20549;-66
2024/03/31 14:42:45;;;;;;;2.50;1.73;;;18.80;99.90;;;;;;10096819;28;20436;-66
2024/03/31 14:47:36;;;;;;;6.10;2.25;;;18.80;99.90;;;;;;10096061;28;20112;-64
2024/03/31 14:52:26;;;;;;;6.50;1.75;;;18.60;99.90;;;;;;10095316;28;20495;-65
2024/03/31 14:57:17;;;;;;;4.95;1.40;;;18.40;99.90;;;;;;10102197;28;20039;-66
2024/03/31 15:02:09;;;;;;;7.88;1.70;;;18.30;99.90;;;;;;10095802;28;20025;-66
2024/03/31 15:07:00;;;;;;;4.72;1.48;;;18.30;99.90;;;;;;10094522;28;20017;-66
2024/03/31 15:11:50;;;;;;;4.38;2.10;;;18.30;99.90;;;;;;10095684;28;20037;-65
2024/03/31 15:16:41;;;;;;;4.85;1.60;;;18.40;99.90;;;;;;10094874;28;20095;-66
2024/03/31 15:21:31;;;;;;;5.30;1.63;;;18.50;99.90;;;;;;10094178;28;20041;-67
2024/03/31 15:26:22;;;;;;;8.10;2.78;;;18.60;99.90;;;;;;10095360;28;20104;-65
2024/03/31 15:31:13;;;;;;;11.70;2.30;;;18.90;99.90;;;;;;10095209;28;20083;-66
2024/03/31 15:36:04;;;;;;;4.25;2.03;;;19.20;99.90;;;;;;10094779;28;20499;-66
2024/03/31 15:40:55;;;;;;;7.22;3.00;;;19.30;99.90;;;;;;10094953;28;20035;-65
2024/03/31 15:45:58;;;;;;;5.75;1.70;;;19.60;99.90;;;;;;10093971;28;20112;-66
2024/03/31 15:50:50;;;;;;;4.88;1.38;;;19.80;99.90;;;;;;10100399;28;20037;-66
2024/03/31 15:55:46;;;;;;;4.38;1.50;;;19.50;99.90;;;;;;10084856;28;20029;-65
2024/03/31 16:00:37;;;;;;;3.85;1.67;;;19.60;99.90;;;;;;10090884;28;20044;-66
2024/03/31 16:05:27;;;;;;;8.70;2.92;;;20.20;99.90;;;;;;10094550;28;20021;-65
2024/03/31 16:10:18;;;;;;;6.53;2.40;;;20.20;99.90;;;;;;10094224;28;20091;-66
2024/03/31 16:15:08;;;;;;;7.95;1.77;;;20.50;99.90;;;;;;10095499;28;20029;-65
2024/03/31 16:19:59;;;;;;;5.30;1.80;;;21.00;99.90;;;;;;10100962;28;20049;-65
2024/03/31 16:24:50;;;;;;;7.95;1.70;;;20.60;99.90;;;;;;10101755;28;20036;-65
2024/03/31 16:29:40;;;;;;;5.55;1.63;;;20.90;99.90;;;;;;10095608;28;20049;-65
2024/03/31 16:34:31;;;;;;;8.80;2.03;;;21.00;99.90;;;;;;10089301;28;20029;-66
2024/03/31 16:39:22;;;;;;;6.60;2.38;;;20.70;99.90;;;;;;10099391;28;20035;-68
2024/03/31 16:44:12;;;;;;;5.22;1.92;;;20.40;99.90;;;;;;10108400;28;20120;-67
2024/03/31 16:49:03;;;;;;;11.02;2.53;;;20.00;99.90;;;;;;10105514;28;20048;-68
2024/03/31 16:53:53;;;;;;;8.00;1.80;;;19.70;99.90;;;;;;10101287;28;20091;-68
2024/03/31 16:58:44;;;;;;;6.20;1.98;;;19.50;99.90;;;;;;10108927;28;20035;-67
2024/03/31 17:03:35;;;;;;;6.20;1.85;;;19.40;99.90;;;;;;10100003;28;20033;-68
2024/03/31 17:08:25;;;;;;;5.93;2.30;;;19.30;99.90;;;;;;10099454;28;20443;-68
2024/03/31 17:13:16;;;;;;;6.80;1.80;;;19.20;99.90;;;;;;10096587;28;20062;-66
2024/03/31 17:18:08;;;;;;;6.38;1.92;;;19.00;99.90;;;;;;10099660;28;20175;-68
2024/03/31 17:22:58;;;;;;;4.00;2.35;;;19.00;99.90;;;;;;10099521;28;20025;-67
2024/03/31 17:27:49;;;;;;;6.20;2.53;;;18.90;99.90;;;;;;10097864;28;20024;-69
2024/03/31 17:32:40;;;;;;;6.78;2.90;;;18.90;99.90;;;;;;10098465;28;20043;-66
2024/03/31 17:37:30;;;;;;;6.50;2.10;;;18.80;99.90;;;;;;10097088;28;20043;-67
2024/03/31 17:42:21;;;;;;;11.10;2.40;;;18.80;99.90;;;;;;10097808;28;20031;-68
2024/03/31 17:47:11;;;;;;;6.93;2.38;;;18.80;99.90;;;;;;10097976;28;20044;-66
2024/03/31 17:52:02;;;;;;;10.57;3.10;;;18.70;99.90;;;;;;10093997;28;20079;-67
2024/03/31 17:56:53;;;;;;;8.63;2.78;;;18.70;99.90;;;;;;10098263;28;20024;-65
2024/03/31 18:01:43;;;;;;;10.52;2.53;;;18.60;99.90;;;;;;10095344;28;20548;-66
2024/03/31 18:06:34;;;;;;;5.93;2.10;;;18.40;99.90;;;;;;10096063;28;20033;-66
2024/03/31 18:11:25;;;;;;;9.00;2.83;;;18.40;99.90;;;;;;10097801;28;20427;-66
2024/03/31 18:16:15;;;;;;;6.00;2.20;;;18.40;99.90;;;;;;10099087;28;20766;-65
2024/03/31 18:21:16;;;;;;;10.27;2.90;;;18.40;99.90;;;;;;10096436;28;20047;-65
2024/03/31 18:26:08;;;;;;;13.93;4.18;;;18.30;99.90;;;;;;10097098;28;20016;-66
2024/03/31 18:31:00;;;;;;;7.45;2.88;;;18.40;99.90;;;;;;10096407;28;20120;-65
2024/03/31 18:35:55;;;;;;;10.45;3.05;;;18.30;99.90;;;;;;10093163;28;20020;-65
2024/03/31 18:40:47;;;;;;;;;;;18.30;99.90;;;;;;10097232;28;20111;-65
2024/03/31 18:45:37;;;;;;;8.77;2.45;;;18.20;99.90;;;;;;10089562;28;20507;-66
2024/03/31 18:50:32;;;;;;;11.90;2.88;;;18.20;99.90;;;;;;10095481;28;20041;-65
2024/03/31 18:55:23;;;;;;;4.20;2.97;;;18.10;99.90;;;;;;10097060;28;20518;-66
2024/03/31 19:00:14;;;;;;;8.70;3.00;;;18.10;99.90;;;;;;10095792;28;20108;-66
2024/03/31 19:05:05;;;;;;;7.55;2.83;;;18.20;99.90;;;;;;10095541;28;20108;-66
2024/03/31 19:09:56;;;;;;;7.93;3.53;;;18.00;99.90;;;;;;10094911;28;20135;-65
2024/03/31 19:14:47;;;;;;;4.95;3.10;;;18.00;99.90;;;;;;10095661;28;20029;-66
2024/03/31 19:19:37;;;;;;;8.57;2.28;;;18.00;99.90;;;;;;10096081;28;20594;-65
2024/03/31 19:24:28;;;;;;;4.18;2.25;;;18.00;99.90;;;;;;10095358;28;20499;-65
2024/03/31 19:29:20;;;;;;;7.43;3.10;;;17.90;99.90;;;;;;10094638;28;20411;-65
2024/03/31 19:34:10;;;;;;;8.05;2.15;;;17.80;99.90;;;;;;10094507;28;20268;-66
2024/03/31 19:39:02;;;;;;;6.28;1.98;;;17.70;99.90;;;;;;10095002;28;20383;-65
2024/03/31 19:43:52;;;;;;;5.75;2.20;;;17.60;99.90;;;;;;10084785;28;20029;-65
2024/03/31 19:48:45;;;;;;;6.43;1.83;;;17.60;99.90;;;;;;10093853;28;20588;-65
2024/03/31 19:53:36;;;;;;;7.60;2.30;;;17.60;99.90;;;;;;10101946;28;20104;-67
2024/03/31 19:58:26;;;;;;;7.90;2.00;;;17.70;99.90;;;;;;10112386;28;20120;-67
2024/03/31 20:03:17;;;;;;;4.90;2.30;;;17.70;99.90;;;;;;10095429;28;20037;-66
2024/03/31 20:08:08;;;;;;;5.97;2.20;;;17.50;99.90;;;;;;10102303;28;20033;-66
2024/03/31 20:12:58;;;;;;;3.38;1.58;;;17.40;99.90;;;;;;10101468;28;20040;-66
2024/03/31 20:17:49;;;;;;;2.75;0.90;;;17.20;99.90;;;;;;10101201;28;20132;-66
2024/03/31 20:22:40;;;;;;;2.78;0.98;;;16.80;99.90;;;;;;10101222;28;20132;-66
2024/03/31 20:27:33;;;;;;;1.35;0.70;;;16.30;99.90;;;;;;10101330;28;20029;-65
2024/03/31 20:32:23;;;;;;;0.88;0.60;;;16.10;99.90;;;;;;10100479;28;20041;-65
2024/03/31 20:37:14;;;;;;;1.73;0.68;;;16.10;99.90;;;;;;10090546;28;20113;-65
2024/03/31 20:42:05;;;;;;;1.02;0.60;;;16.00;99.90;;;;;;10098301;28;20083;-65
2024/03/31 20:46:57;;;;;;;1.70;0.50;;;15.80;99.90;;;;;;10098164;28;20469;-66
2024/03/31 20:51:48;;;;;;;0.80;0.55;;;15.80;99.90;;;;;;10100142;28;20025;-65
2024/03/31 20:56:38;;;;;;;0.57;0.45;;;15.70;99.90;;;;;;10101740;28;20506;-65
2024/03/31 21:01:29;;;;;;;0.65;0.47;;;15.60;99.90;;;;;;10099778;28;20029;-66
2024/03/31 21:06:19;;;;;;;1.02;0.50;;;15.60;99.90;;;;;;10090616;28;20044;-65
2024/03/31 21:11:11;;;;;;;1.05;0.45;;;15.70;99.90;;;;;;10097262;28;20049;-65
2024/03/31 21:16:02;;;;;;;1.27;0.98;;;15.70;99.90;;;;;;10099354;28;20021;-65
2024/03/31 21:20:53;;;;;;;0.85;0.55;;;15.60;99.90;;;;;;10101621;28;20047;-66
2024/03/31 21:25:54;;;;;;;0.55;0.30;;;15.50;99.90;;;;;;10096599;28;20031;-66
2024/03/31 21:30:57;;;;;;;0.60;0.38;;;15.50;99.90;;;;;;10099152;28;20052;-68
2024/03/31 21:35:48;;;;;;;0.45;0.25;;;15.50;99.90;;;;;;10096385;28;20536;-65
2024/03/31 21:40:40;;;;;;;1.85;0.50;;;15.40;99.90;;;;;;10099022;28;20027;-66
2024/03/31 21:45:30;;;;;;;0.88;0.50;;;15.40;99.90;;;;;;10098474;28;20534;-66
2024/03/31 21:50:21;;;;;;;0.57;0.30;;;15.40;99.90;;;;;;10097492;28;20045;-66
2024/03/31 21:55:12;;;;;;;2.65;0.40;;;15.30;99.90;;;;;;10094618;28;20029;-66
2024/03/31 22:00:04;;;;;;;1.20;0.40;;;15.30;99.90;;;;;;10089474;28;20716;-65
2024/03/31 22:04:54;;;;;;;1.50;0.50;;;15.30;99.90;;;;;;10096597;28;20051;-66
2024/03/31 22:09:45;;;;;;;0.70;0.47;;;15.20;99.90;;;;;;10087887;28;20044;-66
2024/03/31 22:14:36;;;;;;;0.95;0.75;;;15.20;99.90;;;;;;10097260;28;20383;-65
2024/03/31 22:19:26;;;;;;;0.40;0.35;;;15.20;99.90;;;;;;10096439;28;20061;-68
2024/03/31 22:24:17;;;;;;;0.98;0.40;;;15.20;99.90;;;;;;10096891;28;20037;-66
2024/03/31 22:29:08;;;;;;;0.77;0.38;;;15.30;99.90;;;;;;10096349;28;20044;-68
2024/03/31 22:33:58;;;;;;;0.75;0.40;;;15.40;99.90;;;;;;10096222;28;20074;-67
2024/03/31 22:38:49;;;;;;;1.27;0.60;;;15.40;99.90;;;;;;10094006;28;20120;-66
2024/03/31 22:43:40;;;;;;;0.93;0.47;;;15.40;99.90;;;;;;10096347;28;20435;-68
2024/03/31 22:48:30;;;;;;;2.90;0.70;;;15.40;99.90;;;;;;10095051;28;20510;-66
2024/03/31 22:53:21;;;;;;;0.60;0.50;;;15.40;99.90;;;;;;10090396;28;20426;-66
2024/03/31 22:58:11;;;;;;;0.90;0.47;;;15.30;99.90;;;;;;10104986;28;20194;-66
2024/03/31 23:03:02;;;;;;;0.63;0.30;;;15.30;99.90;;;;;;10096314;28;20107;-67
2024/03/31 23:07:53;;;;;;;1.30;0.43;;;15.20;99.90;;;;;;10096080;28;20091;-67
2024/03/31 23:12:46;;;;;;;0.30;0.20;;;15.10;99.90;;;;;;10110283;28;20650;-66
2024/03/31 23:17:37;;;;;;;0.98;0.45;;;15.10;99.90;;;;;;10095349;28;20049;-65
2024/03/31 23:22:27;;;;;;;1.15;0.50;;;15.00;99.90;;;;;;10095317;28;20086;-66
2024/03/31 23:27:18;;;;;;;1.42;0.40;;;15.00;99.90;;;;;;10100994;28;20036;-65
2024/03/31 23:32:09;;;;;;;0.55;0.30;;;14.90;99.90;;;;;;10102841;28;20055;-65
2024/03/31 23:37:00;;;;;;;0.50;0.30;;;14.70;99.90;;;;;;10103134;28;20129;-66
2024/03/31 23:41:50;;;;;;;0.68;0.30;;;14.80;99.90;;;;;;10103127;28;20053;-66
2024/03/31 23:46:41;;;;;;;0.55;0.20;;;14.90;99.90;;;;;;10098975;28;20021;-65
2024/03/31 23:51:31;;;;;;;1.35;0.35;;;14.80;99.90;;;;;;10098141;28;20620;-67
2024/03/31 23:56:22;;;;;;;1.15;0.35;;;14.80;99.90;;;;;;10107751;28;20062;-65
